M V Stampede — V70B4 — position and weather

sailwx.info

Track history (hours):
 
Tides and Currents Weather Stations Pressure Air Temp Water Temp Dewpoint Dewpoint Depression Visibility Wind Speed Wind Dir Waves Ship Positions

M V Stampede

Last reported at 2016-Jan-28 21:32 UTC. Time now 2016-Feb-14 23:09 UTC.
Position N 25°23' W 080°06'.
Warning: this ship's position is 17 days out of date.

Length 35 m; draft 3.2 m.

Type: Pleasure craft. MMSI: 538070463.

Date/timePositionNaut miles runAvg speedWind from/ knotsBaromVisibWave heightAir tempDewpointWater temp
2016-Jan-28 21:32N 25°23' W 080°06'8 8.1
2016-Jan-28 20:33N 25°31' W 080°05'8 8.5
2016-Jan-28 19:34N 25°39' W 080°04'9 8.9
2016-Jan-28 18:34N 25°48' W 080°04'8 8.3
2016-Jan-28 17:34N 25°56' W 080°04'8 8.4
2016-Jan-28 16:33N 26°05' W 080°04'3 2.7
2016-Jan-28 15:31N 26°07' W 080°06'0 0.0
2016-Jan-28 14:31N 26°07' W 080°06'0 0.0
2016-Jan-28 13:31N 26°07' W 080°06'0 0.0
2016-Jan-28 12:22N 26°07' W 080°06'0 0.0
2016-Jan-28 11:25N 26°07' W 080°06'0 0.0
2016-Jan-28 10:25N 26°07' W 080°06'0 0.0
2016-Jan-28 09:25N 26°07' W 080°06'0 0.0
2016-Jan-28 08:28N 26°07' W 080°06'0 0.0
2016-Jan-28 07:28N 26°07' W 080°06'0 0.0
2016-Jan-28 06:25N 26°07' W 080°06'0 0.0
2016-Jan-28 05:31N 26°07' W 080°06'0 0.0
2016-Jan-28 04:31N 26°07' W 080°06'0 0.0
2016-Jan-28 03:28N 26°07' W 080°06'0 0.0
2016-Jan-28 02:31N 26°07' W 080°06'0 0.0
2016-Jan-28 01:31N 26°07' W 080°06'0 0.0
2016-Jan-28 00:31N 26°07' W 080°06'0 0.0
2016-Jan-27 23:31N 26°07' W 080°06'0 0.0
2016-Jan-27 22:19N 26°07' W 080°06'0 0.0
2016-Jan-27 21:22N 26°07' W 080°06'0 0.0
2016-Jan-27 20:33N 26°07' W 080°06'0 0.0
2016-Jan-27 19:33N 26°07' W 080°06'0 0.0
2016-Jan-27 18:33N 26°07' W 080°06'0 0.0
2016-Jan-27 17:33N 26°07' W 080°06'0 0.0
2016-Jan-27 16:33N 26°07' W 080°06'0 0.0
2016-Jan-27 15:33N 26°07' W 080°06'0 0.0
2016-Jan-27 14:33N 26°07' W 080°06'0 0.0
2016-Jan-27 13:33N 26°07' W 080°06'0 0.0
2016-Jan-27 12:33N 26°07' W 080°06'0 0.0
2016-Jan-27 11:33N 26°07' W 080°06'0 0.0
2016-Jan-27 10:33N 26°07' W 080°06'0 0.0
2016-Jan-27 09:33N 26°07' W 080°06'0 0.0
2016-Jan-27 08:33N 26°07' W 080°06'0 0.0
2016-Jan-27 07:33N 26°07' W 080°06'0 0.0
2016-Jan-27 06:33N 26°07' W 080°06'0 0.0
2016-Jan-27 05:33N 26°07' W 080°06'0 0.0
2016-Jan-27 04:33N 26°07' W 080°06'0 0.0
2016-Jan-27 03:33N 26°07' W 080°06'0 0.0
2016-Jan-27 02:33N 26°07' W 080°06'0 0.0
2016-Jan-27 01:33N 26°07' W 080°06'0 0.0
2016-Jan-27 00:33N 26°07' W 080°06'0 0.0
2016-Jan-26 23:33N 26°07' W 080°06'0 0.0
2016-Jan-26 22:33N 26°07' W 080°06'0 0.0
2016-Jan-26 21:33N 26°07' W 080°06'0 0.0
2016-Jan-26 20:33N 26°07' W 080°06'0 0.0
2016-Jan-26 19:33N 26°07' W 080°06'0 0.0
2016-Jan-26 18:33N 26°07' W 080°06'0 0.0
2016-Jan-26 17:33N 26°07' W 080°06'0 0.1
2016-Jan-26 16:33N 26°07' W 080°07'2 1.7
2016-Jan-26 15:33N 26°06' W 080°05'5 4.7
2016-Jan-26 14:33N 26°03' W 080°01'7 6.7
2016-Jan-26 13:33N 26°06' W 080°07'1 0.7
2016-Jan-26 12:33N 26°07' W 080°06'0 0.0
2016-Jan-26 11:33N 26°07' W 080°06'0 0.0
2016-Jan-26 10:33N 26°07' W 080°06'0 0.0
2016-Jan-26 09:33N 26°07' W 080°06'0 0.0
2016-Jan-26 08:33N 26°07' W 080°06'0 0.0
2016-Jan-26 07:34N 26°07' W 080°06'0 0.0
2016-Jan-26 06:33N 26°07' W 080°06'0 0.0
2016-Jan-26 05:33N 26°07' W 080°06'0 0.0
2016-Jan-26 04:33N 26°07' W 080°06'0 0.0
2016-Jan-26 03:33N 26°07' W 080°06'0 0.0
2016-Jan-26 02:33N 26°07' W 080°06'0 0.0
2016-Jan-26 01:33N 26°07' W 080°06'0 0.0
2016-Jan-26 00:33N 26°07' W 080°06'0 0.0
2016-Jan-25 23:33N 26°07' W 080°06'0 0.0
2016-Jan-25 22:33N 26°07' W 080°06'0 0.0
2016-Jan-25 21:33N 26°07' W 080°06'0 0.0
2016-Jan-25 20:33N 26°07' W 080°06'0 0.0
2016-Jan-25 19:33N 26°07' W 080°06'0 0.0
2016-Jan-25 18:33N 26°07' W 080°06'0 0.0
2016-Jan-25 17:33N 26°07' W 080°06'0 0.0
2016-Jan-25 16:33N 26°07' W 080°06'0 0.0
2016-Jan-25 15:33N 26°07' W 080°06'0 0.0
2016-Jan-25 14:33N 26°07' W 080°06'0 0.0
2016-Jan-25 13:33N 26°07' W 080°06'0 0.0
2016-Jan-25 12:33N 26°07' W 080°06'0 0.0
2016-Jan-25 11:33N 26°07' W 080°06'0 0.0
2016-Jan-25 10:33N 26°07' W 080°06'0 0.0
2016-Jan-25 09:33N 26°07' W 080°06'0 0.0
2016-Jan-25 08:33N 26°07' W 080°06'0 0.0
2016-Jan-25 07:33N 26°07' W 080°06'0 0.0
2016-Jan-25 06:33N 26°07' W 080°06'0 0.0
2016-Jan-25 05:33N 26°07' W 080°06'0 0.0
2016-Jan-25 04:33N 26°07' W 080°06'0 0.0
2016-Jan-25 03:33N 26°07' W 080°06'0 0.0
2016-Jan-25 02:33N 26°07' W 080°06'0 0.0
2016-Jan-25 01:33N 26°07' W 080°06'0 0.0
2016-Jan-25 00:33N 26°07' W 080°06'0 0.0
2016-Jan-24 23:33N 26°07' W 080°06'0 0.0
2016-Jan-24 22:34N 26°07' W 080°06'0 0.0
2016-Jan-24 21:33N 26°07' W 080°06'0 0.0
2016-Jan-24 20:34N 26°07' W 080°06'0 0.0
2016-Jan-24 19:33N 26°07' W 080°06'0 0.0
2016-Jan-24 18:33N 26°07' W 080°06'0 0.0
2016-Jan-24 17:33N 26°07' W 080°06'0 0.0
2016-Jan-24 16:33N 26°07' W 080°06'0 0.0
2016-Jan-24 15:33N 26°07' W 080°06'0 0.0
2016-Jan-24 14:33N 26°07' W 080°06'0 0.0
2016-Jan-24 13:33N 26°07' W 080°06'0 0.0
2016-Jan-24 12:33N 26°07' W 080°06'0 0.0
2016-Jan-24 11:33N 26°07' W 080°06'0 0.0
2016-Jan-24 10:33N 26°07' W 080°06'0 0.0
2016-Jan-24 09:33N 26°07' W 080°06'0 0.0
2016-Jan-24 08:33N 26°07' W 080°06'0 0.0
2016-Jan-24 07:34N 26°07' W 080°06'0 0.0
2016-Jan-24 06:34N 26°07' W 080°06'0 0.0
2016-Jan-24 05:33N 26°07' W 080°06'0 0.0
2016-Jan-24 04:33N 26°07' W 080°06'0 0.0
2016-Jan-24 03:33N 26°07' W 080°06'0 0.0
2016-Jan-24 02:33N 26°07' W 080°06'0 0.0
2016-Jan-24 01:33N 26°07' W 080°06'0 0.0
2016-Jan-24 00:33N 26°07' W 080°06'0 0.0
2016-Jan-23 23:33N 26°07' W 080°06'0 0.0
2016-Jan-23 22:33N 26°07' W 080°06'0 0.0
2016-Jan-23 21:33N 26°07' W 080°06'0 0.0
2016-Jan-23 20:33N 26°07' W 080°06'0 0.0
2016-Jan-23 19:33N 26°07' W 080°06'0 0.0
2016-Jan-23 18:33N 26°07' W 080°06'0 0.0
2016-Jan-23 17:33N 26°07' W 080°06'0 0.0
2016-Jan-23 16:33N 26°07' W 080°06'0 0.0
2016-Jan-23 15:33N 26°07' W 080°06'0 0.0
2016-Jan-23 14:33N 26°07' W 080°06'0 0.0
2016-Jan-23 13:34N 26°07' W 080°06'0 0.0
2016-Jan-23 12:33N 26°07' W 080°06'0 0.0
2016-Jan-23 11:33N 26°07' W 080°06'0 0.0
2016-Jan-23 10:33N 26°07' W 080°06'0 0.0
2016-Jan-23 09:33N 26°07' W 080°06'0 0.0
2016-Jan-23 08:33N 26°07' W 080°06'0 0.0
2016-Jan-23 07:33N 26°07' W 080°06'0 0.0
2016-Jan-23 06:33N 26°07' W 080°06'0 0.0
2016-Jan-23 05:33N 26°07' W 080°06'0 0.0
2016-Jan-23 04:34N 26°07' W 080°06'0 0.0
2016-Jan-23 03:33N 26°07' W 080°06'0 0.0
2016-Jan-23 02:34N 26°07' W 080°06'0 0.0
2016-Jan-23 01:33N 26°07' W 080°06'0 0.0
2016-Jan-23 00:33N 26°07' W 080°06'0 0.0
2016-Jan-22 23:33N 26°07' W 080°06'0 0.1
2016-Jan-22 22:33N 26°07' W 080°07'0 0.0
2016-Jan-22 21:33N 26°07' W 080°07'0 0.0
2016-Jan-22 20:33N 26°07' W 080°07'0 0.0
2016-Jan-22 19:33N 26°07' W 080°07'0 0.0
2016-Jan-22 18:33N 26°07' W 080°07'0 0.0
2016-Jan-22 17:33N 26°07' W 080°07'0 0.0
2016-Jan-22 16:33N 26°07' W 080°07'0 0.0
2016-Jan-22 15:33N 26°07' W 080°07'0 0.0
2016-Jan-22 14:34N 26°07' W 080°07'0 0.1
2016-Jan-22 13:33N 26°07' W 080°06'0 0.0
2016-Jan-22 12:33N 26°07' W 080°06'0 0.0
2016-Jan-22 11:33N 26°07' W 080°06'0 0.0
2016-Jan-22 10:33N 26°07' W 080°06'0 0.0
2016-Jan-22 09:33N 26°07' W 080°06'0 0.0
2016-Jan-22 08:33N 26°07' W 080°06'0 0.0
2016-Jan-22 07:33N 26°07' W 080°06'0 0.0
2016-Jan-22 06:33N 26°07' W 080°06'0 0.0
2016-Jan-22 05:33N 26°07' W 080°06'0 0.0
2016-Jan-22 04:33N 26°07' W 080°06'0 0.0
2016-Jan-22 03:33N 26°07' W 080°06'0 0.0
2016-Jan-22 02:33N 26°07' W 080°06'0 0.0
2016-Jan-22 01:33N 26°07' W 080°06'0 0.0
2016-Jan-22 00:33N 26°07' W 080°06'1 0.5
2016-Jan-21 23:33N 26°07' W 080°07'4 3.6
2016-Jan-21 22:34N 26°09' W 080°04'9 9.0
2016-Jan-21 21:33N 26°18' W 080°03'1212.0
2016-Jan-21 20:33N 26°30' W 080°01'  
Track history (hours):
 
Tides and Currents Weather Stations Pressure Air Temp Water Temp Dewpoint Dewpoint Depression Visibility Wind Speed Wind Dir Waves Ship Positions

M V Stampede

Last reported at 2016-Jan-28 21:32 UTC. Time now 2016-Feb-14 23:09 UTC.
Position N 25°23' W 080°06'.
Warning: this ship's position is 17 days out of date.

Length 35 m; draft 3.2 m.

Type: Pleasure craft. MMSI: 538070463.

Date/timePositionNaut miles runAvg speedWind from/ knotsBaromVisibWave heightAir tempDewpointWater temp
2016-Jan-28 21:32N 25°23' W 080°06'8 8.1
2016-Jan-28 20:33N 25°31' W 080°05'8 8.5
2016-Jan-28 19:34N 25°39' W 080°04'9 8.9
2016-Jan-28 18:34N 25°48' W 080°04'8 8.3
2016-Jan-28 17:34N 25°56' W 080°04'8 8.4
2016-Jan-28 16:33N 26°05' W 080°04'3 2.7
2016-Jan-28 15:31N 26°07' W 080°06'0 0.0
2016-Jan-28 14:31N 26°07' W 080°06'0 0.0
2016-Jan-28 13:31N 26°07' W 080°06'0 0.0
2016-Jan-28 12:22N 26°07' W 080°06'0 0.0
2016-Jan-28 11:25N 26°07' W 080°06'0 0.0
2016-Jan-28 10:25N 26°07' W 080°06'0 0.0
2016-Jan-28 09:25N 26°07' W 080°06'0 0.0
2016-Jan-28 08:28N 26°07' W 080°06'0 0.0
2016-Jan-28 07:28N 26°07' W 080°06'0 0.0
2016-Jan-28 06:25N 26°07' W 080°06'0 0.0
2016-Jan-28 05:31N 26°07' W 080°06'0 0.0
2016-Jan-28 04:31N 26°07' W 080°06'0 0.0
2016-Jan-28 03:28N 26°07' W 080°06'0 0.0
2016-Jan-28 02:31N 26°07' W 080°06'0 0.0
2016-Jan-28 01:31N 26°07' W 080°06'0 0.0
2016-Jan-28 00:31N 26°07' W 080°06'0 0.0
2016-Jan-27 23:31N 26°07' W 080°06'0 0.0
2016-Jan-27 22:19N 26°07' W 080°06'0 0.0
2016-Jan-27 21:22N 26°07' W 080°06'0 0.0
2016-Jan-27 20:33N 26°07' W 080°06'0 0.0
2016-Jan-27 19:33N 26°07' W 080°06'0 0.0
2016-Jan-27 18:33N 26°07' W 080°06'0 0.0
2016-Jan-27 17:33N 26°07' W 080°06'0 0.0
2016-Jan-27 16:33N 26°07' W 080°06'0 0.0
2016-Jan-27 15:33N 26°07' W 080°06'0 0.0
2016-Jan-27 14:33N 26°07' W 080°06'0 0.0
2016-Jan-27 13:33N 26°07' W 080°06'0 0.0
2016-Jan-27 12:33N 26°07' W 080°06'0 0.0
2016-Jan-27 11:33N 26°07' W 080°06'0 0.0
2016-Jan-27 10:33N 26°07' W 080°06'0 0.0
2016-Jan-27 09:33N 26°07' W 080°06'0 0.0
2016-Jan-27 08:33N 26°07' W 080°06'0 0.0
2016-Jan-27 07:33N 26°07' W 080°06'0 0.0
2016-Jan-27 06:33N 26°07' W 080°06'0 0.0
2016-Jan-27 05:33N 26°07' W 080°06'0 0.0
2016-Jan-27 04:33N 26°07' W 080°06'0 0.0
2016-Jan-27 03:33N 26°07' W 080°06'0 0.0
2016-Jan-27 02:33N 26°07' W 080°06'0 0.0
2016-Jan-27 01:33N 26°07' W 080°06'0 0.0
2016-Jan-27 00:33N 26°07' W 080°06'0 0.0
2016-Jan-26 23:33N 26°07' W 080°06'0 0.0
2016-Jan-26 22:33N 26°07' W 080°06'0 0.0
2016-Jan-26 21:33N 26°07' W 080°06'0 0.0
2016-Jan-26 20:33N 26°07' W 080°06'0 0.0
2016-Jan-26 19:33N 26°07' W 080°06'0 0.0
2016-Jan-26 18:33N 26°07' W 080°06'0 0.0
2016-Jan-26 17:33N 26°07' W 080°06'0 0.1
2016-Jan-26 16:33N 26°07' W 080°07'2 1.7
2016-Jan-26 15:33N 26°06' W 080°05'5 4.7
2016-Jan-26 14:33N 26°03' W 080°01'7 6.7
2016-Jan-26 13:33N 26°06' W 080°07'1 0.7
2016-Jan-26 12:33N 26°07' W 080°06'0 0.0
2016-Jan-26 11:33N 26°07' W 080°06'0 0.0
2016-Jan-26 10:33N 26°07' W 080°06'0 0.0
2016-Jan-26 09:33N 26°07' W 080°06'0 0.0
2016-Jan-26 08:33N 26°07' W 080°06'0 0.0
2016-Jan-26 07:34N 26°07' W 080°06'0 0.0
2016-Jan-26 06:33N 26°07' W 080°06'0 0.0
2016-Jan-26 05:33N 26°07' W 080°06'0 0.0
2016-Jan-26 04:33N 26°07' W 080°06'0 0.0
2016-Jan-26 03:33N 26°07' W 080°06'0 0.0
2016-Jan-26 02:33N 26°07' W 080°06'0 0.0
2016-Jan-26 01:33N 26°07' W 080°06'0 0.0
2016-Jan-26 00:33N 26°07' W 080°06'0 0.0
2016-Jan-25 23:33N 26°07' W 080°06'0 0.0
2016-Jan-25 22:33N 26°07' W 080°06'0 0.0
2016-Jan-25 21:33N 26°07' W 080°06'0 0.0
2016-Jan-25 20:33N 26°07' W 080°06'0 0.0
2016-Jan-25 19:33N 26°07' W 080°06'0 0.0
2016-Jan-25 18:33N 26°07' W 080°06'0 0.0
2016-Jan-25 17:33N 26°07' W 080°06'0 0.0
2016-Jan-25 16:33N 26°07' W 080°06'0 0.0
2016-Jan-25 15:33N 26°07' W 080°06'0 0.0
2016-Jan-25 14:33N 26°07' W 080°06'0 0.0
2016-Jan-25 13:33N 26°07' W 080°06'0 0.0
2016-Jan-25 12:33N 26°07' W 080°06'0 0.0
2016-Jan-25 11:33N 26°07' W 080°06'0 0.0
2016-Jan-25 10:33N 26°07' W 080°06'0 0.0
2016-Jan-25 09:33N 26°07' W 080°06'0 0.0
2016-Jan-25 08:33N 26°07' W 080°06'0 0.0
2016-Jan-25 07:33N 26°07' W 080°06'0 0.0
2016-Jan-25 06:33N 26°07' W 080°06'0 0.0
2016-Jan-25 05:33N 26°07' W 080°06'0 0.0
2016-Jan-25 04:33N 26°07' W 080°06'0 0.0
2016-Jan-25 03:33N 26°07' W 080°06'0 0.0
2016-Jan-25 02:33N 26°07' W 080°06'0 0.0
2016-Jan-25 01:33N 26°07' W 080°06'0 0.0
2016-Jan-25 00:33N 26°07' W 080°06'0 0.0
2016-Jan-24 23:33N 26°07' W 080°06'0 0.0
2016-Jan-24 22:34N 26°07' W 080°06'0 0.0
2016-Jan-24 21:33N 26°07' W 080°06'0 0.0
2016-Jan-24 20:34N 26°07' W 080°06'0 0.0
2016-Jan-24 19:33N 26°07' W 080°06'0 0.0
2016-Jan-24 18:33N 26°07' W 080°06'0 0.0
2016-Jan-24 17:33N 26°07' W 080°06'0 0.0
2016-Jan-24 16:33N 26°07' W 080°06'0 0.0
2016-Jan-24 15:33N 26°07' W 080°06'0 0.0
2016-Jan-24 14:33N 26°07' W 080°06'0 0.0
2016-Jan-24 13:33N 26°07' W 080°06'0 0.0
2016-Jan-24 12:33N 26°07' W 080°06'0 0.0
2016-Jan-24 11:33N 26°07' W 080°06'0 0.0
2016-Jan-24 10:33N 26°07' W 080°06'0 0.0
2016-Jan-24 09:33N 26°07' W 080°06'0 0.0
2016-Jan-24 08:33N 26°07' W 080°06'0 0.0
2016-Jan-24 07:34N 26°07' W 080°06'0 0.0
2016-Jan-24 06:34N 26°07' W 080°06'0 0.0
2016-Jan-24 05:33N 26°07' W 080°06'0 0.0
2016-Jan-24 04:33N 26°07' W 080°06'0 0.0
2016-Jan-24 03:33N 26°07' W 080°06'0 0.0
2016-Jan-24 02:33N 26°07' W 080°06'0 0.0
2016-Jan-24 01:33N 26°07' W 080°06'0 0.0
2016-Jan-24 00:33N 26°07' W 080°06'0 0.0
2016-Jan-23 23:33N 26°07' W 080°06'0 0.0
2016-Jan-23 22:33N 26°07' W 080°06'0 0.0
2016-Jan-23 21:33N 26°07' W 080°06'0 0.0
2016-Jan-23 20:33N 26°07' W 080°06'0 0.0
2016-Jan-23 19:33N 26°07' W 080°06'0 0.0
2016-Jan-23 18:33N 26°07' W 080°06'0 0.0
2016-Jan-23 17:33N 26°07' W 080°06'0 0.0
2016-Jan-23 16:33N 26°07' W 080°06'0 0.0
2016-Jan-23 15:33N 26°07' W 080°06'0 0.0
2016-Jan-23 14:33N 26°07' W 080°06'0 0.0
2016-Jan-23 13:34N 26°07' W 080°06'0 0.0
2016-Jan-23 12:33N 26°07' W 080°06'0 0.0
2016-Jan-23 11:33N 26°07' W 080°06'0 0.0
2016-Jan-23 10:33N 26°07' W 080°06'0 0.0
2016-Jan-23 09:33N 26°07' W 080°06'0 0.0
2016-Jan-23 08:33N 26°07' W 080°06'0 0.0
2016-Jan-23 07:33N 26°07' W 080°06'0 0.0
2016-Jan-23 06:33N 26°07' W 080°06'0 0.0
2016-Jan-23 05:33N 26°07' W 080°06'0 0.0
2016-Jan-23 04:34N 26°07' W 080°06'0 0.0
2016-Jan-23 03:33N 26°07' W 080°06'0 0.0
2016-Jan-23 02:34N 26°07' W 080°06'0 0.0
2016-Jan-23 01:33N 26°07' W 080°06'0 0.0
2016-Jan-23 00:33N 26°07' W 080°06'0 0.0
2016-Jan-22 23:33N 26°07' W 080°06'0 0.1
2016-Jan-22 22:33N 26°07' W 080°07'0 0.0
2016-Jan-22 21:33N 26°07' W 080°07'0 0.0
2016-Jan-22 20:33N 26°07' W 080°07'0 0.0
2016-Jan-22 19:33N 26°07' W 080°07'0 0.0
2016-Jan-22 18:33N 26°07' W 080°07'0 0.0
2016-Jan-22 17:33N 26°07' W 080°07'0 0.0
2016-Jan-22 16:33N 26°07' W 080°07'0 0.0
2016-Jan-22 15:33N 26°07' W 080°07'0 0.0
2016-Jan-22 14:34N 26°07' W 080°07'0 0.1
2016-Jan-22 13:33N 26°07' W 080°06'0 0.0
2016-Jan-22 12:33N 26°07' W 080°06'0 0.0
2016-Jan-22 11:33N 26°07' W 080°06'0 0.0
2016-Jan-22 10:33N 26°07' W 080°06'0 0.0
2016-Jan-22 09:33N 26°07' W 080°06'0 0.0
2016-Jan-22 08:33N 26°07' W 080°06'0 0.0
2016-Jan-22 07:33N 26°07' W 080°06'0 0.0
2016-Jan-22 06:33N 26°07' W 080°06'0 0.0
2016-Jan-22 05:33N 26°07' W 080°06'0 0.0
2016-Jan-22 04:33N 26°07' W 080°06'0 0.0
2016-Jan-22 03:33N 26°07' W 080°06'0 0.0
2016-Jan-22 02:33N 26°07' W 080°06'0 0.0
2016-Jan-22 01:33N 26°07' W 080°06'0 0.0
2016-Jan-22 00:33N 26°07' W 080°06'1 0.5
2016-Jan-21 23:33N 26°07' W 080°07'4 3.6
2016-Jan-21 22:34N 26°09' W 080°04'9 9.0
2016-Jan-21 21:33N 26°18' W 080°03'1212.0
2016-Jan-21 20:33N 26°30' W 080°01'  

Dump ship's entire track history